sensor_id;sensor_type;location;lat;lon;timestamp;P1;durP1;ratioP1;P2;durP2;ratioP2
32082;SDS011;18597;48.328;7.932;2023-05-07T00:01:56;4.90;;;4.50;;
32082;SDS011;18597;48.328;7.932;2023-05-07T00:04:22;9.20;;;4.47;;
32082;SDS011;18597;48.328;7.932;2023-05-07T00:06:47;5.50;;;5.10;;
32082;SDS011;18597;48.328;7.932;2023-05-07T00:09:13;4.53;;;4.17;;
32082;SDS011;18597;48.328;7.932;2023-05-07T00:11:39;4.40;;;4.17;;
32082;SDS011;18597;48.328;7.932;2023-05-07T00:14:05;4.87;;;4.57;;
32082;SDS011;18597;48.328;7.932;2023-05-07T00:16:31;6.13;;;4.77;;
32082;SDS011;18597;48.328;7.932;2023-05-07T00:18:57;5.03;;;4.63;;
32082;SDS011;18597;48.328;7.932;2023-05-07T00:21:23;4.57;;;4.23;;
32082;SDS011;18597;48.328;7.932;2023-05-07T00:23:51;4.27;;;3.97;;
32082;SDS011;18597;48.328;7.932;2023-05-07T00:26:18;8.43;;;4.90;;
32082;SDS011;18597;48.328;7.932;2023-05-07T00:28:45;5.10;;;4.60;;
32082;SDS011;18597;48.328;7.932;2023-05-07T00:31:11;6.80;;;4.97;;
32082;SDS011;18597;48.328;7.932;2023-05-07T00:33:37;6.50;;;5.37;;
32082;SDS011;18597;48.328;7.932;2023-05-07T00:36:03;5.13;;;4.30;;
32082;SDS011;18597;48.328;7.932;2023-05-07T00:38:29;5.13;;;4.83;;
32082;SDS011;18597;48.328;7.932;2023-05-07T00:40:56;4.83;;;4.47;;
32082;SDS011;18597;48.328;7.932;2023-05-07T00:43:22;5.33;;;4.27;;
32082;SDS011;18597;48.328;7.932;2023-05-07T00:45:47;4.43;;;4.23;;
32082;SDS011;18597;48.328;7.932;2023-05-07T00:48:13;4.30;;;3.90;;
32082;SDS011;18597;48.328;7.932;2023-05-07T00:50:40;9.53;;;5.10;;
32082;SDS011;18597;48.328;7.932;2023-05-07T00:53:06;5.77;;;5.23;;
32082;SDS011;18597;48.328;7.932;2023-05-07T00:55:32;5.80;;;4.67;;
32082;SDS011;18597;48.328;7.932;2023-05-07T00:57:58;5.07;;;4.47;;
32082;SDS011;18597;48.328;7.932;2023-05-07T01:00:24;6.73;;;5.07;;
32082;SDS011;18597;48.328;7.932;2023-05-07T01:02:50;6.70;;;4.90;;
32082;SDS011;18597;48.328;7.932;2023-05-07T01:05:17;6.93;;;5.03;;
32082;SDS011;18597;48.328;7.932;2023-05-07T01:07:45;5.70;;;5.20;;
32082;SDS011;18597;48.328;7.932;2023-05-07T01:10:12;9.07;;;4.40;;
32082;SDS011;18597;48.328;7.932;2023-05-07T01:12:38;5.53;;;5.00;;
32082;SDS011;18597;48.328;7.932;2023-05-07T01:15:07;6.77;;;4.27;;
32082;SDS011;18597;48.328;7.932;2023-05-07T01:17:35;4.97;;;4.67;;
32082;SDS011;18597;48.328;7.932;2023-05-07T01:20:02;7.87;;;4.70;;
32082;SDS011;18597;48.328;7.932;2023-05-07T01:22:31;5.53;;;5.10;;
32082;SDS011;18597;48.328;7.932;2023-05-07T01:24:58;5.13;;;4.50;;
32082;SDS011;18597;48.328;7.932;2023-05-07T01:27:26;4.87;;;4.53;;
32082;SDS011;18597;48.328;7.932;2023-05-07T01:29:53;5.53;;;5.03;;
32082;SDS011;18597;48.328;7.932;2023-05-07T01:32:19;5.10;;;4.90;;
32082;SDS011;18597;48.328;7.932;2023-05-07T01:34:53;5.00;;;4.77;;
32082;SDS011;18597;48.328;7.932;2023-05-07T01:37:22;7.20;;;4.70;;
32082;SDS011;18597;48.328;7.932;2023-05-07T01:39:49;5.13;;;4.70;;
32082;SDS011;18597;48.328;7.932;2023-05-07T01:42:16;4.03;;;3.83;;
32082;SDS011;18597;48.328;7.932;2023-05-07T01:44:42;5.60;;;5.20;;
32082;SDS011;18597;48.328;7.932;2023-05-07T01:47:08;4.97;;;4.37;;
32082;SDS011;18597;48.328;7.932;2023-05-07T01:49:35;5.30;;;4.83;;
32082;SDS011;18597;48.328;7.932;2023-05-07T01:52:01;5.60;;;5.20;;
32082;SDS011;18597;48.328;7.932;2023-05-07T01:54:27;5.53;;;4.83;;
32082;SDS011;18597;48.328;7.932;2023-05-07T01:56:53;4.90;;;4.53;;
32082;SDS011;18597;48.328;7.932;2023-05-07T01:59:21;5.90;;;5.20;;
32082;SDS011;18597;48.328;7.932;2023-05-07T02:01:47;5.90;;;5.37;;
32082;SDS011;18597;48.328;7.932;2023-05-07T02:04:13;5.60;;;5.20;;
32082;SDS011;18597;48.328;7.932;2023-05-07T02:06:39;9.13;;;6.13;;
32082;SDS011;18597;48.328;7.932;2023-05-07T02:09:04;6.37;;;5.60;;
32082;SDS011;18597;48.328;7.932;2023-05-07T02:11:30;5.40;;;5.00;;
32082;SDS011;18597;48.328;7.932;2023-05-07T02:13:56;7.13;;;5.10;;
32082;SDS011;18597;48.328;7.932;2023-05-07T02:16:22;5.70;;;5.20;;
32082;SDS011;18597;48.328;7.932;2023-05-07T02:18:48;5.30;;;4.97;;
32082;SDS011;18597;48.328;7.932;2023-05-07T02:21:14;5.40;;;5.07;;
32082;SDS011;18597;48.328;7.932;2023-05-07T02:23:40;8.07;;;6.10;;
32082;SDS011;18597;48.328;7.932;2023-05-07T02:26:06;5.63;;;5.33;;
32082;SDS011;18597;48.328;7.932;2023-05-07T02:28:32;6.20;;;5.80;;
32082;SDS011;18597;48.328;7.932;2023-05-07T02:31:00;6.53;;;6.13;;
32082;SDS011;18597;48.328;7.932;2023-05-07T02:33:29;11.77;;;5.77;;
32082;SDS011;18597;48.328;7.932;2023-05-07T02:35:55;7.53;;;5.50;;
32082;SDS011;18597;48.328;7.932;2023-05-07T02:38:21;6.90;;;5.50;;
32082;SDS011;18597;48.328;7.932;2023-05-07T02:40:48;6.50;;;6.10;;
32082;SDS011;18597;48.328;7.932;2023-05-07T02:43:14;10.60;;;5.70;;
32082;SDS011;18597;48.328;7.932;2023-05-07T02:45:40;10.77;;;6.17;;
32082;SDS011;18597;48.328;7.932;2023-05-07T02:48:05;9.23;;;5.80;;
32082;SDS011;18597;48.328;7.932;2023-05-07T02:50:32;6.30;;;5.70;;
32082;SDS011;18597;48.328;7.932;2023-05-07T02:52:58;5.63;;;5.33;;
32082;SDS011;18597;48.328;7.932;2023-05-07T02:55:23;9.27;;;5.60;;
32082;SDS011;18597;48.328;7.932;2023-05-07T02:57:49;7.00;;;6.30;;
32082;SDS011;18597;48.328;7.932;2023-05-07T03:00:16;7.47;;;6.67;;
32082;SDS011;18597;48.328;7.932;2023-05-07T03:02:44;10.37;;;5.97;;
32082;SDS011;18597;48.328;7.932;2023-05-07T03:05:10;5.93;;;5.30;;
32082;SDS011;18597;48.328;7.932;2023-05-07T03:07:37;10.13;;;6.20;;
32082;SDS011;18597;48.328;7.932;2023-05-07T03:10:03;5.40;;;5.03;;
32082;SDS011;18597;48.328;7.932;2023-05-07T03:12:30;5.87;;;5.13;;
32082;SDS011;18597;48.328;7.932;2023-05-07T03:14:56;5.57;;;5.17;;
32082;SDS011;18597;48.328;7.932;2023-05-07T03:17:22;5.83;;;5.33;;
32082;SDS011;18597;48.328;7.932;2023-05-07T03:19:48;5.83;;;4.83;;
32082;SDS011;18597;48.328;7.932;2023-05-07T03:22:14;5.27;;;4.83;;
32082;SDS011;18597;48.328;7.932;2023-05-07T03:24:40;5.97;;;5.43;;
32082;SDS011;18597;48.328;7.932;2023-05-07T03:27:05;6.13;;;5.73;;
32082;SDS011;18597;48.328;7.932;2023-05-07T03:29:31;5.50;;;5.00;;
32082;SDS011;18597;48.328;7.932;2023-05-07T03:31:57;4.47;;;4.03;;
32082;SDS011;18597;48.328;7.932;2023-05-07T03:34:23;5.17;;;4.70;;
32082;SDS011;18597;48.328;7.932;2023-05-07T03:36:49;4.20;;;4.00;;
32082;SDS011;18597;48.328;7.932;2023-05-07T03:39:15;5.73;;;5.23;;
32082;SDS011;18597;48.328;7.932;2023-05-07T03:41:40;6.00;;;4.90;;
32082;SDS011;18597;48.328;7.932;2023-05-07T03:44:06;9.13;;;5.30;;
32082;SDS011;18597;48.328;7.932;2023-05-07T03:46:32;6.20;;;5.60;;
32082;SDS011;18597;48.328;7.932;2023-05-07T03:48:59;6.53;;;5.20;;
32082;SDS011;18597;48.328;7.932;2023-05-07T03:51:25;6.40;;;5.33;;
32082;SDS011;18597;48.328;7.932;2023-05-07T03:53:51;5.20;;;4.90;;
32082;SDS011;18597;48.328;7.932;2023-05-07T03:56:18;5.40;;;4.90;;
32082;SDS011;18597;48.328;7.932;2023-05-07T03:58:44;5.97;;;5.40;;
32082;SDS011;18597;48.328;7.932;2023-05-07T04:01:10;4.97;;;4.57;;
32082;SDS011;18597;48.328;7.932;2023-05-07T04:03:37;6.37;;;5.87;;
32082;SDS011;18597;48.328;7.932;2023-05-07T04:06:02;5.97;;;4.67;;
32082;SDS011;18597;48.328;7.932;2023-05-07T04:08:28;6.17;;;5.30;;
32082;SDS011;18597;48.328;7.932;2023-05-07T04:10:55;4.67;;;4.37;;
32082;SDS011;18597;48.328;7.932;2023-05-07T04:13:23;5.10;;;4.90;;
32082;SDS011;18597;48.328;7.932;2023-05-07T04:15:50;5.30;;;4.70;;
32082;SDS011;18597;48.328;7.932;2023-05-07T04:18:17;5.03;;;4.70;;
32082;SDS011;18597;48.328;7.932;2023-05-07T04:20:43;4.90;;;4.60;;
32082;SDS011;18597;48.328;7.932;2023-05-07T04:23:09;5.40;;;4.90;;
32082;SDS011;18597;48.328;7.932;2023-05-07T04:25:35;5.30;;;5.00;;
32082;SDS011;18597;48.328;7.932;2023-05-07T04:28:01;5.57;;;5.20;;
32082;SDS011;18597;48.328;7.932;2023-05-07T04:30:26;5.13;;;4.73;;
32082;SDS011;18597;48.328;7.932;2023-05-07T04:32:52;12.07;;;5.20;;
32082;SDS011;18597;48.328;7.932;2023-05-07T04:35:18;4.87;;;4.67;;
32082;SDS011;18597;48.328;7.932;2023-05-07T04:37:44;5.10;;;4.70;;
32082;SDS011;18597;48.328;7.932;2023-05-07T04:40:10;4.70;;;4.23;;
32082;SDS011;18597;48.328;7.932;2023-05-07T04:42:36;4.97;;;4.57;;
32082;SDS011;18597;48.328;7.932;2023-05-07T04:45:02;6.27;;;4.93;;
32082;SDS011;18597;48.328;7.932;2023-05-07T04:47:30;3.93;;;3.73;;
32082;SDS011;18597;48.328;7.932;2023-05-07T04:49:56;8.63;;;4.30;;
32082;SDS011;18597;48.328;7.932;2023-05-07T04:52:23;6.40;;;4.90;;
32082;SDS011;18597;48.328;7.932;2023-05-07T04:54:49;4.70;;;4.47;;
32082;SDS011;18597;48.328;7.932;2023-05-07T04:57:15;5.20;;;4.70;;
32082;SDS011;18597;48.328;7.932;2023-05-07T04:59:42;4.50;;;4.10;;
32082;SDS011;18597;48.328;7.932;2023-05-07T05:02:10;9.87;;;4.27;;
32082;SDS011;18597;48.328;7.932;2023-05-07T05:04:36;4.30;;;4.10;;
32082;SDS011;18597;48.328;7.932;2023-05-07T05:07:02;3.60;;;3.30;;
32082;SDS011;18597;48.328;7.932;2023-05-07T05:09:29;4.57;;;2.90;;
32082;SDS011;18597;48.328;7.932;2023-05-07T05:11:55;4.83;;;3.10;;
32082;SDS011;18597;48.328;7.932;2023-05-07T05:14:21;3.47;;;3.23;;
32082;SDS011;18597;48.328;7.932;2023-05-07T05:16:47;3.47;;;3.20;;
32082;SDS011;18597;48.328;7.932;2023-05-07T05:19:13;3.20;;;2.90;;
32082;SDS011;18597;48.328;7.932;2023-05-07T05:21:38;4.90;;;3.70;;
32082;SDS011;18597;48.328;7.932;2023-05-07T05:24:04;3.33;;;3.03;;
32082;SDS011;18597;48.328;7.932;2023-05-07T05:26:30;2.77;;;2.67;;
32082;SDS011;18597;48.328;7.932;2023-05-07T05:28:56;3.10;;;2.90;;
32082;SDS011;18597;48.328;7.932;2023-05-07T05:31:22;2.90;;;2.80;;
32082;SDS011;18597;48.328;7.932;2023-05-07T05:33:48;10.60;;;3.37;;
32082;SDS011;18597;48.328;7.932;2023-05-07T05:36:13;5.30;;;3.20;;
32082;SDS011;18597;48.328;7.932;2023-05-07T05:38:39;2.33;;;2.33;;
32082;SDS011;18597;48.328;7.932;2023-05-07T05:41:05;2.80;;;2.60;;
32082;SDS011;18597;48.328;7.932;2023-05-07T05:43:31;2.43;;;2.33;;
32082;SDS011;18597;48.328;7.932;2023-05-07T05:45:57;2.70;;;2.53;;
32082;SDS011;18597;48.328;7.932;2023-05-07T05:48:23;2.27;;;2.17;;
32082;SDS011;18597;48.328;7.932;2023-05-07T05:50:49;5.77;;;3.00;;
32082;SDS011;18597;48.328;7.932;2023-05-07T05:53:15;3.77;;;3.10;;
32082;SDS011;18597;48.328;7.932;2023-05-07T05:55:41;5.53;;;2.50;;
32082;SDS011;18597;48.328;7.932;2023-05-07T05:58:07;4.57;;;2.70;;
32082;SDS011;18597;48.328;7.932;2023-05-07T06:00:34;2.60;;;2.60;;
32082;SDS011;18597;48.328;7.932;2023-05-07T06:03:00;2.80;;;2.60;;
32082;SDS011;18597;48.328;7.932;2023-05-07T06:05:26;2.13;;;2.13;;
32082;SDS011;18597;48.328;7.932;2023-05-07T06:07:51;2.90;;;2.63;;
32082;SDS011;18597;48.328;7.932;2023-05-07T06:10:17;2.40;;;2.30;;
32082;SDS011;18597;48.328;7.932;2023-05-07T06:12:43;5.37;;;2.30;;
32082;SDS011;18597;48.328;7.932;2023-05-07T06:15:09;2.83;;;1.93;;
32082;SDS011;18597;48.328;7.932;2023-05-07T06:17:35;2.00;;;1.80;;
32082;SDS011;18597;48.328;7.932;2023-05-07T06:20:01;1.67;;;1.57;;
32082;SDS011;18597;48.328;7.932;2023-05-07T06:22:28;2.60;;;2.10;;
32082;SDS011;18597;48.328;7.932;2023-05-07T06:24:53;1.63;;;1.63;;
32082;SDS011;18597;48.328;7.932;2023-05-07T06:27:19;5.27;;;2.20;;
32082;SDS011;18597;48.328;7.932;2023-05-07T06:29:47;2.53;;;2.43;;
32082;SDS011;18597;48.328;7.932;2023-05-07T06:32:13;2.23;;;2.13;;
32082;SDS011;18597;48.328;7.932;2023-05-07T06:34:40;3.10;;;2.50;;
32082;SDS011;18597;48.328;7.932;2023-05-07T06:37:06;4.40;;;2.43;;
32082;SDS011;18597;48.328;7.932;2023-05-07T06:39:32;1.53;;;1.53;;
32082;SDS011;18597;48.328;7.932;2023-05-07T06:41:59;2.00;;;2.00;;
32082;SDS011;18597;48.328;7.932;2023-05-07T06:44:26;1.80;;;1.80;;
32082;SDS011;18597;48.328;7.932;2023-05-07T06:46:52;7.10;;;1.87;;
32082;SDS011;18597;48.328;7.932;2023-05-07T06:49:18;2.10;;;1.57;;
32082;SDS011;18597;48.328;7.932;2023-05-07T06:51:44;2.10;;;1.67;;
32082;SDS011;18597;48.328;7.932;2023-05-07T06:54:10;2.80;;;2.10;;
32082;SDS011;18597;48.328;7.932;2023-05-07T06:56:36;2.00;;;1.90;;
32082;SDS011;18597;48.328;7.932;2023-05-07T06:59:01;4.00;;;2.37;;
32082;SDS011;18597;48.328;7.932;2023-05-07T07:01:28;3.93;;;1.90;;
32082;SDS011;18597;48.328;7.932;2023-05-07T07:03:54;2.27;;;2.17;;
32082;SDS011;18597;48.328;7.932;2023-05-07T07:06:20;2.07;;;1.47;;
32082;SDS011;18597;48.328;7.932;2023-05-07T07:08:46;1.60;;;1.23;;
32082;SDS011;18597;48.328;7.932;2023-05-07T07:11:12;1.47;;;1.47;;
32082;SDS011;18597;48.328;7.932;2023-05-07T07:13:38;2.00;;;1.40;;
32082;SDS011;18597;48.328;7.932;2023-05-07T07:16:05;2.03;;;1.70;;
32082;SDS011;18597;48.328;7.932;2023-05-07T07:18:31;1.47;;;1.47;;
32082;SDS011;18597;48.328;7.932;2023-05-07T07:20:56;3.40;;;1.70;;
32082;SDS011;18597;48.328;7.932;2023-05-07T07:23:23;1.37;;;1.37;;
32082;SDS011;18597;48.328;7.932;2023-05-07T07:25:48;2.33;;;1.80;;
32082;SDS011;18597;48.328;7.932;2023-05-07T07:28:14;2.50;;;1.73;;
32082;SDS011;18597;48.328;7.932;2023-05-07T07:30:40;6.53;;;2.20;;
32082;SDS011;18597;48.328;7.932;2023-05-07T07:33:06;1.83;;;1.73;;
32082;SDS011;18597;48.328;7.932;2023-05-07T07:35:32;2.70;;;2.60;;
32082;SDS011;18597;48.328;7.932;2023-05-07T07:37:58;3.13;;;2.10;;
32082;SDS011;18597;48.328;7.932;2023-05-07T07:40:24;1.97;;;1.90;;
32082;SDS011;18597;48.328;7.932;2023-05-07T07:42:51;1.73;;;1.60;;
32082;SDS011;18597;48.328;7.932;2023-05-07T07:45:18;3.47;;;2.27;;
32082;SDS011;18597;48.328;7.932;2023-05-07T07:47:44;1.70;;;1.70;;
32082;SDS011;18597;48.328;7.932;2023-05-07T07:50:10;2.17;;;2.17;;
32082;SDS011;18597;48.328;7.932;2023-05-07T07:52:36;2.20;;;2.00;;
32082;SDS011;18597;48.328;7.932;2023-05-07T07:55:02;1.77;;;1.77;;
32082;SDS011;18597;48.328;7.932;2023-05-07T07:57:29;2.00;;;1.90;;
32082;SDS011;18597;48.328;7.932;2023-05-07T07:59:55;1.20;;;1.20;;
32082;SDS011;18597;48.328;7.932;2023-05-07T08:02:21;1.17;;;1.02;;
32082;SDS011;18597;48.328;7.932;2023-05-07T08:04:47;1.50;;;1.50;;
32082;SDS011;18597;48.328;7.932;2023-05-07T08:07:13;1.63;;;1.52;;
32082;SDS011;18597;48.328;7.932;2023-05-07T08:09:39;3.67;;;1.52;;
32082;SDS011;18597;48.328;7.932;2023-05-07T08:12:06;1.35;;;1.25;;
32082;SDS011;18597;48.328;7.932;2023-05-07T08:14:32;1.92;;;1.83;;
32082;SDS011;18597;48.328;7.932;2023-05-07T08:16:59;1.45;;;1.45;;
32082;SDS011;18597;48.328;7.932;2023-05-07T08:19:25;1.25;;;1.17;;
32082;SDS011;18597;48.328;7.932;2023-05-07T08:21:51;1.55;;;1.48;;
32082;SDS011;18597;48.328;7.932;2023-05-07T08:24:17;2.17;;;1.70;;
32082;SDS011;18597;48.328;7.932;2023-05-07T08:26:43;1.02;;;1.00;;
32082;SDS011;18597;48.328;7.932;2023-05-07T08:29:10;2.22;;;1.20;;
32082;SDS011;18597;48.328;7.932;2023-05-07T08:31:36;0.90;;;0.90;;
32082;SDS011;18597;48.328;7.932;2023-05-07T08:34:03;1.58;;;1.48;;
32082;SDS011;18597;48.328;7.932;2023-05-07T08:36:30;1.67;;;1.45;;
32082;SDS011;18597;48.328;7.932;2023-05-07T08:38:56;1.40;;;1.40;;
32082;SDS011;18597;48.328;7.932;2023-05-07T08:41:21;1.88;;;1.77;;
32082;SDS011;18597;48.328;7.932;2023-05-07T08:43:48;1.35;;;1.17;;
32082;SDS011;18597;48.328;7.932;2023-05-07T08:46:19;5.03;;;1.80;;
32082;SDS011;18597;48.328;7.932;2023-05-07T08:48:47;1.90;;;1.80;;
32082;SDS011;18597;48.328;7.932;2023-05-07T08:51:16;1.60;;;1.50;;
32082;SDS011;18597;48.328;7.932;2023-05-07T08:53:45;3.23;;;1.60;;
32082;SDS011;18597;48.328;7.932;2023-05-07T08:56:13;2.93;;;1.80;;
32082;SDS011;18597;48.328;7.932;2023-05-07T08:58:41;1.87;;;1.73;;
32082;SDS011;18597;48.328;7.932;2023-05-07T09:01:09;1.60;;;1.60;;
32082;SDS011;18597;48.328;7.932;2023-05-07T09:03:39;2.17;;;2.03;;
32082;SDS011;18597;48.328;7.932;2023-05-07T09:06:06;1.70;;;1.60;;
32082;SDS011;18597;48.328;7.932;2023-05-07T09:08:33;5.00;;;2.43;;
32082;SDS011;18597;48.328;7.932;2023-05-07T09:10:59;1.70;;;1.60;;
32082;SDS011;18597;48.328;7.932;2023-05-07T09:13:25;3.90;;;1.70;;
32082;SDS011;18597;48.328;7.932;2023-05-07T09:15:53;3.90;;;1.80;;
32082;SDS011;18597;48.328;7.932;2023-05-07T09:18:19;1.80;;;1.70;;
32082;SDS011;18597;48.328;7.932;2023-05-07T09:20:45;2.40;;;2.20;;
32082;SDS011;18597;48.328;7.932;2023-05-07T09:23:10;3.27;;;2.23;;
32082;SDS011;18597;48.328;7.932;2023-05-07T09:25:36;5.93;;;2.30;;
32082;SDS011;18597;48.328;7.932;2023-05-07T09:28:03;2.70;;;2.60;;
32082;SDS011;18597;48.328;7.932;2023-05-07T09:30:31;4.60;;;2.60;;
32082;SDS011;18597;48.328;7.932;2023-05-07T09:32:59;2.90;;;2.63;;
32082;SDS011;18597;48.328;7.932;2023-05-07T09:35:28;2.83;;;2.63;;
32082;SDS011;18597;48.328;7.932;2023-05-07T09:37:55;4.90;;;3.30;;
32082;SDS011;18597;48.328;7.932;2023-05-07T09:40:25;4.13;;;3.73;;
32082;SDS011;18597;48.328;7.932;2023-05-07T09:42:54;3.30;;;2.93;;
32082;SDS011;18597;48.328;7.932;2023-05-07T09:45:21;3.47;;;3.07;;
32082;SDS011;18597;48.328;7.932;2023-05-07T09:47:53;3.60;;;3.30;;
32082;SDS011;18597;48.328;7.932;2023-05-07T09:50:23;3.23;;;3.07;;
32082;SDS011;18597;48.328;7.932;2023-05-07T09:52:53;8.13;;;2.70;;
32082;SDS011;18597;48.328;7.932;2023-05-07T09:55:21;3.43;;;3.13;;
32082;SDS011;18597;48.328;7.932;2023-05-07T09:57:50;5.70;;;3.27;;
32082;SDS011;18597;48.328;7.932;2023-05-07T10:00:18;6.03;;;3.40;;
32082;SDS011;18597;48.328;7.932;2023-05-07T10:02:47;3.13;;;2.93;;
32082;SDS011;18597;48.328;7.932;2023-05-07T10:05:17;5.20;;;3.17;;
32082;SDS011;18597;48.328;7.932;2023-05-07T10:07:45;2.73;;;2.73;;
32082;SDS011;18597;48.328;7.932;2023-05-07T10:10:11;3.40;;;3.30;;
32082;SDS011;18597;48.328;7.932;2023-05-07T10:12:38;3.10;;;3.00;;
32082;SDS011;18597;48.328;7.932;2023-05-07T10:15:06;11.63;;;3.40;;
32082;SDS011;18597;48.328;7.932;2023-05-07T10:17:35;3.43;;;3.20;;
32082;SDS011;18597;48.328;7.932;2023-05-07T10:20:03;5.07;;;3.40;;
32082;SDS011;18597;48.328;7.932;2023-05-07T10:22:40;2.93;;;2.83;;
32082;SDS011;18597;48.328;7.932;2023-05-07T10:25:13;3.83;;;3.33;;
32082;SDS011;18597;48.328;7.932;2023-05-07T10:27:46;3.50;;;3.30;;
32082;SDS011;18597;48.328;7.932;2023-05-07T10:30:22;2.40;;;2.40;;
32082;SDS011;18597;48.328;7.932;2023-05-07T10:33:15;4.03;;;2.80;;
32082;SDS011;18597;48.328;7.932;2023-05-07T10:35:43;3.87;;;2.20;;
32082;SDS011;18597;48.328;7.932;2023-05-07T10:38:11;7.20;;;2.90;;
32082;SDS011;18597;48.328;7.932;2023-05-07T10:40:37;11.10;;;3.20;;
32082;SDS011;18597;48.328;7.932;2023-05-07T10:43:04;3.40;;;2.97;;
32082;SDS011;18597;48.328;7.932;2023-05-07T10:45:31;3.40;;;3.13;;
32082;SDS011;18597;48.328;7.932;2023-05-07T10:48:13;4.87;;;2.87;;
32082;SDS011;18597;48.328;7.932;2023-05-07T10:50:41;3.57;;;3.37;;
32082;SDS011;18597;48.328;7.932;2023-05-07T10:55:50;3.67;;;3.47;;
32082;SDS011;18597;48.328;7.932;2023-05-07T10:58:36;4.07;;;3.80;;
32082;SDS011;18597;48.328;7.932;2023-05-07T11:01:02;7.40;;;4.23;;
32082;SDS011;18597;48.328;7.932;2023-05-07T11:03:29;3.07;;;2.97;;
32082;SDS011;18597;48.328;7.932;2023-05-07T11:06:12;4.83;;;4.03;;
32082;SDS011;18597;48.328;7.932;2023-05-07T11:08:57;3.37;;;3.10;;
32082;SDS011;18597;48.328;7.932;2023-05-07T11:11:54;3.70;;;3.50;;
32082;SDS011;18597;48.328;7.932;2023-05-07T11:14:42;3.90;;;3.60;;
32082;SDS011;18597;48.328;7.932;2023-05-07T11:17:10;6.73;;;4.50;;
32082;SDS011;18597;48.328;7.932;2023-05-07T11:19:52;10.70;;;4.97;;
32082;SDS011;18597;48.328;7.932;2023-05-07T11:22:35;5.40;;;4.97;;
32082;SDS011;18597;48.328;7.932;2023-05-07T11:25:05;4.50;;;4.10;;
32082;SDS011;18597;48.328;7.932;2023-05-07T11:27:32;4.40;;;3.97;;
32082;SDS011;18597;48.328;7.932;2023-05-07T11:29:58;4.87;;;4.53;;
32082;SDS011;18597;48.328;7.932;2023-05-07T11:32:26;5.10;;;4.60;;
32082;SDS011;18597;48.328;7.932;2023-05-07T11:34:54;4.87;;;4.50;;
32082;SDS011;18597;48.328;7.932;2023-05-07T11:37:22;4.33;;;4.13;;
32082;SDS011;18597;48.328;7.932;2023-05-07T11:39:49;4.27;;;4.07;;
32082;SDS011;18597;48.328;7.932;2023-05-07T11:42:35;7.70;;;4.57;;
32082;SDS011;18597;48.328;7.932;2023-05-07T11:45:03;5.00;;;4.70;;
32082;SDS011;18597;48.328;7.932;2023-05-07T11:47:32;6.03;;;4.77;;
32082;SDS011;18597;48.328;7.932;2023-05-07T11:50:03;5.63;;;5.00;;
32082;SDS011;18597;48.328;7.932;2023-05-07T11:52:32;4.37;;;3.97;;
32082;SDS011;18597;48.328;7.932;2023-05-07T11:54:59;4.07;;;3.90;;
32082;SDS011;18597;48.328;7.932;2023-05-07T11:57:28;4.00;;;3.70;;
32082;SDS011;18597;48.328;7.932;2023-05-07T11:59:54;11.83;;;4.37;;
32082;SDS011;18597;48.328;7.932;2023-05-07T12:02:23;3.57;;;3.37;;
32082;SDS011;18597;48.328;7.932;2023-05-07T12:04:50;4.20;;;4.00;;
32082;SDS011;18597;48.328;7.932;2023-05-07T12:07:17;7.93;;;3.80;;
32082;SDS011;18597;48.328;7.932;2023-05-07T12:09:44;6.47;;;4.03;;
32082;SDS011;18597;48.328;7.932;2023-05-07T12:12:12;6.23;;;4.47;;
32082;SDS011;18597;48.328;7.932;2023-05-07T12:14:42;7.60;;;3.20;;
32082;SDS011;18597;48.328;7.932;2023-05-07T12:17:10;4.00;;;3.50;;
32082;SDS011;18597;48.328;7.932;2023-05-07T12:19:39;3.40;;;3.10;;
32082;SDS011;18597;48.328;7.932;2023-05-07T12:22:07;3.70;;;3.50;;
32082;SDS011;18597;48.328;7.932;2023-05-07T12:24:49;3.10;;;3.00;;
32082;SDS011;18597;48.328;7.932;2023-05-07T12:27:22;4.80;;;3.20;;
32082;SDS011;18597;48.328;7.932;2023-05-07T12:29:49;3.07;;;2.97;;
32082;SDS011;18597;48.328;7.932;2023-05-07T12:32:16;3.77;;;3.37;;
32082;SDS011;18597;48.328;7.932;2023-05-07T12:34:44;3.57;;;3.40;;
32082;SDS011;18597;48.328;7.932;2023-05-07T12:37:12;3.93;;;2.73;;
32082;SDS011;18597;48.328;7.932;2023-05-07T12:39:42;3.90;;;2.83;;
32082;SDS011;18597;48.328;7.932;2023-05-07T12:42:14;2.63;;;2.60;;
32082;SDS011;18597;48.328;7.932;2023-05-07T12:44:41;3.90;;;3.60;;
32082;SDS011;18597;48.328;7.932;2023-05-07T12:47:10;5.70;;;4.00;;
32082;SDS011;18597;48.328;7.932;2023-05-07T12:49:37;3.33;;;2.93;;
32082;SDS011;18597;48.328;7.932;2023-05-07T12:52:05;4.30;;;2.57;;
32082;SDS011;18597;48.328;7.932;2023-05-07T12:54:31;2.93;;;2.83;;
32082;SDS011;18597;48.328;7.932;2023-05-07T12:57:02;5.90;;;2.67;;
32082;SDS011;18597;48.328;7.932;2023-05-07T12:59:32;3.07;;;2.77;;
32082;SDS011;18597;48.328;7.932;2023-05-07T13:02:00;3.60;;;3.30;;
32082;SDS011;18597;48.328;7.932;2023-05-07T13:04:26;4.27;;;3.87;;
32082;SDS011;18597;48.328;7.932;2023-05-07T13:06:52;3.83;;;3.53;;
32082;SDS011;18597;48.328;7.932;2023-05-07T13:09:17;3.77;;;3.50;;
32082;SDS011;18597;48.328;7.932;2023-05-07T13:11:43;3.00;;;2.90;;
32082;SDS011;18597;48.328;7.932;2023-05-07T13:14:09;3.23;;;2.93;;
32082;SDS011;18597;48.328;7.932;2023-05-07T13:16:35;4.80;;;4.37;;
32082;SDS011;18597;48.328;7.932;2023-05-07T13:19:00;3.37;;;3.17;;
32082;SDS011;18597;48.328;7.932;2023-05-07T13:21:26;3.17;;;2.83;;
32082;SDS011;18597;48.328;7.932;2023-05-07T13:23:52;4.27;;;3.97;;
32082;SDS011;18597;48.328;7.932;2023-05-07T13:26:18;4.77;;;3.30;;
32082;SDS011;18597;48.328;7.932;2023-05-07T13:28:44;3.90;;;3.63;;
32082;SDS011;18597;48.328;7.932;2023-05-07T13:31:09;4.30;;;3.93;;
32082;SDS011;18597;48.328;7.932;2023-05-07T13:33:35;6.27;;;3.97;;
32082;SDS011;18597;48.328;7.932;2023-05-07T13:36:01;3.23;;;3.07;;
32082;SDS011;18597;48.328;7.932;2023-05-07T13:38:29;3.40;;;3.40;;
32082;SDS011;18597;48.328;7.932;2023-05-07T13:40:55;3.47;;;3.37;;
32082;SDS011;18597;48.328;7.932;2023-05-07T13:43:21;3.53;;;3.40;;
32082;SDS011;18597;48.328;7.932;2023-05-07T13:45:47;4.83;;;4.10;;
32082;SDS011;18597;48.328;7.932;2023-05-07T13:48:13;3.83;;;3.53;;
32082;SDS011;18597;48.328;7.932;2023-05-07T13:50:38;4.80;;;4.40;;
32082;SDS011;18597;48.328;7.932;2023-05-07T13:53:04;3.57;;;3.17;;
32082;SDS011;18597;48.328;7.932;2023-05-07T13:55:30;3.30;;;3.20;;
32082;SDS011;18597;48.328;7.932;2023-05-07T13:57:58;3.77;;;3.47;;
32082;SDS011;18597;48.328;7.932;2023-05-07T14:00:26;2.70;;;2.50;;
32082;SDS011;18597;48.328;7.932;2023-05-07T14:02:57;2.67;;;2.60;;
32082;SDS011;18597;48.328;7.932;2023-05-07T14:05:23;2.80;;;2.37;;
32082;SDS011;18597;48.328;7.932;2023-05-07T14:07:50;2.20;;;2.10;;
32082;SDS011;18597;48.328;7.932;2023-05-07T14:10:17;2.10;;;2.00;;
32082;SDS011;18597;48.328;7.932;2023-05-07T14:12:44;3.37;;;1.80;;
32082;SDS011;18597;48.328;7.932;2023-05-07T14:15:10;2.63;;;1.60;;
32082;SDS011;18597;48.328;7.932;2023-05-07T14:17:36;1.50;;;1.40;;
32082;SDS011;18597;48.328;7.932;2023-05-07T14:20:02;1.60;;;1.50;;
32082;SDS011;18597;48.328;7.932;2023-05-07T14:22:29;1.17;;;1.13;;
32082;SDS011;18597;48.328;7.932;2023-05-07T14:24:55;1.00;;;1.00;;
32082;SDS011;18597;48.328;7.932;2023-05-07T14:27:20;1.17;;;1.17;;
32082;SDS011;18597;48.328;7.932;2023-05-07T14:29:46;1.33;;;1.33;;
32082;SDS011;18597;48.328;7.932;2023-05-07T14:32:16;2.27;;;1.90;;
32082;SDS011;18597;48.328;7.932;2023-05-07T14:34:43;0.60;;;0.60;;
32082;SDS011;18597;48.328;7.932;2023-05-07T14:37:10;0.80;;;0.80;;
32082;SDS011;18597;48.328;7.932;2023-05-07T14:39:36;0.80;;;0.80;;
32082;SDS011;18597;48.328;7.932;2023-05-07T14:42:01;0.80;;;0.80;;
32082;SDS011;18597;48.328;7.932;2023-05-07T14:44:27;1.13;;;1.13;;
32082;SDS011;18597;48.328;7.932;2023-05-07T14:46:54;2.40;;;0.80;;
32082;SDS011;18597;48.328;7.932;2023-05-07T14:49:20;0.80;;;0.80;;
32082;SDS011;18597;48.328;7.932;2023-05-07T14:51:46;1.27;;;0.90;;